Wetterdaten: aktuell Dienstag, 13.04.2021 11:40
Datum Zeit Arbeit-Z. Temp. A. Bod.+5cm Temp. A. min Temp. A. max Bl.Temp +1m BTemp -5cm BTemp -10cm BTemp -20cm BTemp -50cm Feuchte I. Feuchte A. BlattFeu +1m BFeucht -5cm BFeucht-10cm BFeucht-20cm BFeucht-50cm Luftdruck Regen Wind Richtung Richtung Sonnenschein ET UV Solar Taupunkt Windchill Windben Empfang
13.04.2021 11:40 22,4 C 7,4 C 10,6 C 7,4 C 8,0 C 8,9 C 8,9 C 7,2 C 7,8 C 9,4 C 45 % 55 % 0 lf 20 cb 200 cb 50 cb 27 cb 1029,8 hPa 0,0 l/m 1,8 km/h (1 Bft) O-SO 111 60 min 0,203 mm 1,3 UV-I 197 W/m -1,0 C 7,4 C 4,8 km/h (1 Bft) 96,46 %
13.04.2021 10:40 22,4 C 6,7 C 9,4 C 6,6 C 6,7 C 7,2 C 7,2 C 7,2 C 8,3 C 9,4 C 44 % 63 % 0 lf 21 cb 200 cb 50 cb 27 cb 1029,8 hPa 0,0 l/m 4,0 km/h (1 Bft) N-NW 329 60 min 0,102 mm 1,2 UV-I 230 W/m 0,2 C 6,7 C 9,7 km/h (2 Bft) 90,27 %
13.04.2021 09:40 22,5 C 4,9 C 7,2 C 4,8 C 4,9 C 5,6 C 5,6 C 7,2 C 8,3 C 9,4 C 44 % 74 % 0 lf 21 cb 200 cb 50 cb 27 cb 1029,7 hPa 0,0 l/m 0,3 km/h (0 Bft) S-SO 155 60 min 0,076 mm 0,9 UV-I 186 W/m 0,7 C 4,9 C 1,6 km/h (1 Bft) 98,28 %
13.04.2021 08:40 22,5 C 2,8 C 7,2 C 2,3 C 2,8 C 5,0 C 5,0 C 7,2 C 8,3 C 9,4 C 42 % 86 % 0 lf 21 cb 200 cb 50 cb 27 cb 1029,8 hPa 0,0 l/m 1,2 km/h (1 Bft) S-SO 154 25 min 0,000 mm 0,5 UV-I 255 W/m 0,7 C 2,8 C 3,2 km/h (1 Bft) 94,12 %
13.04.2021 07:40 22,4 C 0,7 C 0,0 C 0,7 C 0,7 C 5,0 C 5,0 C 7,8 C 8,3 C 9,4 C 41 % 90 % 0 lf 21 cb 200 cb 50 cb 27 cb 1029,4 hPa 0,0 l/m 0,0 km/h (0 Bft) S-SO 155 0 min 0,000 mm 0,0 UV-I 60 W/m -0,7 C 0,7 C 0,0 km/h (0 Bft) 96,58 %
13.04.2021 06:40 22,4 C 0,2 C -0,6 C 0,0 C 0,2 C 5,6 C 5,6 C 7,8 C 8,3 C 9,4 C 41 % 91 % 1 lf 21 cb 200 cb 49 cb 27 cb 1029,0 hPa 0,0 l/m 0,1 km/h (0 Bft) S 170 0 min 0,000 mm 0,0 UV-I 0 W/m -1,1 C 0,2 C 1,6 km/h (1 Bft) 94,96 %
13.04.2021 05:40 22,3 C 0,4 C -1,1 C 0,4 C 0,6 C 5,6 C 5,6 C 7,8 C 8,9 C 9,4 C 41 % 89 % 1 lf 20 cb 200 cb 50 cb 27 cb 1028,5 hPa 0,0 l/m 0,1 km/h (0 Bft) W-SW 239 0 min 0,000 mm 0,0 UV-I 0 W/m -1,2 C 0,4 C 1,6 km/h (1 Bft) 94,87 %
13.04.2021 04:40 22,2 C 0,0 C -1,7 C 0,0 C 0,1 C 6,1 C 6,1 C 8,3 C 8,9 C 9,4 C 41 % 90 % 2 lf 20 cb 200 cb 49 cb 27 cb 1028,3 hPa 0,0 l/m 1,0 km/h (0 Bft) SO 133 0 min 0,000 mm 0,0 UV-I 0 W/m -1,4 C 0,0 C 3,2 km/h (1 Bft) 94,55 %
13.04.2021 03:40 21,7 C 1,1 C -1,1 C 1,1 C 1,1 C 6,1 C 6,1 C 8,3 C 8,9 C 9,4 C 42 % 87 % 1 lf 20 cb 200 cb 49 cb 27 cb 1027,8 hPa 0,0 l/m 0,0 km/h (0 Bft) O-SO 105 0 min 0,000 mm 0,0 UV-I 0 W/m -0,8 C 1,1 C 0,0 km/h (0 Bft) 90,98 %
13.04.2021 02:40 21,8 C 1,3 C -0,6 C 1,2 C 1,3 C 6,7 C 6,7 C 8,9 C 8,9 C 9,4 C 42 % 88 % 1 lf 20 cb 200 cb 49 cb 27 cb 1027,9 hPa 0,0 l/m 0,1 km/h (0 Bft) O-SO 105 0 min 0,000 mm 0,0 UV-I 0 W/m -0,5 C 1,3 C 1,6 km/h (1 Bft) 100,00 %
13.04.2021 01:40 21,9 C 1,3 C -0,6 C 1,3 C 1,4 C 6,7 C 6,7 C 8,9 C 8,9 C 9,4 C 42 % 87 % 0 lf 20 cb 200 cb 49 cb 27 cb 1028,1 hPa 0,0 l/m 1,0 km/h (0 Bft) O-SO 113 0 min 0,000 mm 0,0 UV-I 0 W/m -0,6 C 1,3 C 3,2 km/h (1 Bft) 88,43 %
13.04.2021 00:40 22,1 C 2,3 C 0,0 C 2,3 C 2,4 C 7,2 C 7,2 C 8,9 C 8,9 C 9,4 C 42 % 85 % 0 lf 20 cb 200 cb 48 cb 27 cb 1027,9 hPa 0,0 l/m 0,3 km/h (0 Bft) O 98 0 min 0,000 mm 0,0 UV-I 0 W/m 0,0 C 2,3 C 1,6 km/h (1 Bft) 96,49 %
12.04.2021 23:40 22,3 C 3,1 C 1,1 C 3,1 C 3,3 C 7,8 C 7,8 C 9,4 C 9,4 C 9,4 C 42 % 83 % 0 lf 20 cb 200 cb 49 cb 27 cb 1027,8 hPa 0,0 l/m 0,7 km/h (0 Bft) O 89 0 min 0,000 mm 0,0 UV-I 0 W/m 0,5 C 3,1 C 3,2 km/h (1 Bft) 96,03 %
12.04.2021 22:40 22,6 C 4,1 C 2,2 C 4,1 C 4,3 C 7,8 C 7,8 C 9,4 C 9,4 C 9,4 C 42 % 81 % 0 lf 20 cb 200 cb 49 cb 27 cb 1027,6 hPa 0,0 l/m 0,9 km/h (0 Bft) SO 138 0 min 0,025 mm 0,0 UV-I 0 W/m 1,1 C 4,1 C 3,2 km/h (1 Bft) 94,44 %
12.04.2021 21:40 22,6 C 5,4 C 3,9 C 5,4 C 5,6 C 8,3 C 8,3 C 9,4 C 9,4 C 9,4 C 42 % 76 % 0 lf 20 cb 200 cb 48 cb 27 cb 1027,5 hPa 0,0 l/m 3,1 km/h (1 Bft) S-SW 198 0 min 0,000 mm 0,0 UV-I 0 W/m 1,5 C 5,4 C 6,4 km/h (2 Bft) 95,04 %
12.04.2021 20:40 22,7 C 6,2 C 4,4 C 6,2 C 6,4 C 8,3 C 8,3 C 9,4 C 9,4 C 9,4 C 42 % 70 % 0 lf 19 cb 200 cb 48 cb 27 cb 1026,9 hPa 0,0 l/m 0,5 km/h (0 Bft) S-SO 162 0 min 0,025 mm 0,0 UV-I 0 W/m 1,1 C 6,2 C 1,6 km/h (1 Bft) 98,29 %
12.04.2021 19:40 22,8 C 7,8 C 7,2 C 7,8 C 7,9 C 8,9 C 8,9 C 9,4 C 9,4 C 9,4 C 42 % 59 % 0 lf 19 cb 200 cb 48 cb 27 cb 1026,4 hPa 0,0 l/m 2,0 km/h (1 Bft) SO 134 5 min 0,051 mm 0,0 UV-I 49 W/m 0,3 C 7,8 C 4,8 km/h (1 Bft) 87,88 %
12.04.2021 18:40 22,4 C 8,8 C 13,9 C 8,5 C 8,8 C 9,4 C 9,4 C 10,0 C 9,4 C 9,4 C 42 % 51 % 0 lf 19 cb 200 cb 48 cb 27 cb 1026,2 hPa 0,0 l/m 0,6 km/h (0 Bft) SO 141 10 min 0,127 mm 0,0 UV-I 216 W/m -0,8 C 8,8 C 3,2 km/h (1 Bft) 68,42 %
12.04.2021 17:40 22,7 C 8,9 C 8,9 C 8,8 C 8,9 C 10,0 C 10,0 C 9,4 C 8,9 C 9,4 C 42 % 57 % 0 lf 19 cb 200 cb 48 cb 27 cb 1025,9 hPa 0,0 l/m 3,9 km/h (1 Bft) SO 130 40 min 0,203 mm 0,0 UV-I 84 W/m 0,9 C 8,9 C 9,7 km/h (2 Bft) 91,23 %
12.04.2021 16:40 22,6 C 9,1 C 12,2 C 9,0 C 9,2 C 10,0 C 10,0 C 9,4 C 8,9 C 9,4 C 42 % 54 % 0 lf 19 cb 200 cb 48 cb 27 cb 1025,8 hPa 0,0 l/m 6,0 km/h (2 Bft) SW 227 60 min 0,127 mm 1,1 UV-I 295 W/m 0,3 C 9,1 C 17,7 km/h (3 Bft) 91,30 %
12.04.2021 15:40 22,6 C 9,1 C 16,1 C 9,1 C 9,2 C 10,6 C 10,6 C 9,4 C 8,9 C 9,4 C 42 % 50 % 0 lf 19 cb 200 cb 49 cb 27 cb 1025,6 hPa 0,0 l/m 2,6 km/h (1 Bft) SO 131 45 min 0,127 mm 1,7 UV-I 214 W/m -0,8 C 9,1 C 4,8 km/h (1 Bft) 95,76 %
12.04.2021 14:40 22,7 C 8,6 C 12,2 C 8,1 C 8,6 C 11,1 C 11,1 C 8,9 C 8,9 C 9,4 C 43 % 54 % 0 lf 19 cb 200 cb 50 cb 27 cb 1025,7 hPa 0,0 l/m 3,6 km/h (1 Bft) N-NW 340 60 min 0,254 mm 2,0 UV-I 304 W/m -0,2 C 8,6 C 9,7 km/h (2 Bft) 92,11 %
12.04.2021 13:40 22,9 C 8,8 C 12,2 C 8,8 C 9,6 C 11,1 C 11,1 C 8,9 C 8,9 C 9,4 C 43 % 47 % 0 lf 19 cb 200 cb 52 cb 26 cb 1025,5 hPa 0,0 l/m 4,0 km/h (1 Bft) W-NW 299 60 min 0,331 mm 1,3 UV-I 237 W/m -1,9 C 8,8 C 9,7 km/h (2 Bft) 90,98 %
12.04.2021 12:40 23,1 C 8,4 C 19,4 C 8,2 C 8,4 C 9,4 C 9,4 C 8,9 C 8,9 C 9,4 C 43 % 61 % 0 lf 20 cb 200 cb 56 cb 26 cb 1025,5 hPa 0,0 l/m 6,2 km/h (2 Bft) W-SW 246 40 min 0,127 mm 3,6 UV-I 851 W/m 1,3 C 8,4 C 14,5 km/h (3 Bft) 77,97 %
12.04.2021 12:00 23,2 C 6,3 C 7,2 C 6,2 C 6,3 C 8,3 C 8,3 C 8,3 C 8,9 C 9,4 C 43 % 74 % 0 lf 20 cb 200 cb 59 cb 26 cb 1025,7 hPa 0,0 l/m 1,4 km/h (1 Bft) SW 221 0 min 0,127 mm 1,7 UV-I 229 W/m 2,0 C 6,3 C 6,4 km/h (2 Bft) 95,28 %
_ Min-Zeit 03:10 04:45 03:30 04:45 04:45 07:25 07:20 08:40 11:05 12:00 04:30 13:30 12:00 13:30 12:00 16:00 12:00 12:45 - 20:35 - - - - - - 18:25 04:45 20:35 12:45
Minimum _ 21,7 C -0,1 C -1,7 C -0,1 C 0,0 C 5,0 C 5,0 C 7,2 C 7,8 C 9,4 C 41 % 45 % 0 lf 19 cb 200 cb 48 cb 26 cb 1025,4 hPa - 0,0 km/h (0 Bft) - - - - - - -2,2 C -0,1 C 0,0 km/h (0 Bft) 63,03 %
_ Max-Zeit 12:00 16:55 12:30 17:20 16:55 13:35 13:35 17:55 18:25 12:00 10:45 07:25 18:25 05:55 12:00 12:00 13:25 08:45 12:00 13:30 - - 12:00 13:00 13:15 13:25 12:25 16:55 13:30 02:40
Maximum _ 23,2 C 10,2 C 20,6 C 10,0 C 10,2 C 11,1 C 11,1 C 10,0 C 9,4 C 9,4 C 45 % 92 % 4 lf 21 cb 200 cb 59 cb 27 cb 1029,9 hPa 0,0 l/m 11,1 km/h
N-NW (2 Bft)
- - 5 min 0,331 mm 3,9 UV-I 960 W/m 2,8 C 10,2 C 20,9 km/h
NW (4 Bft)
100,00 %
Durchschnitt _ 22,5 C 5,0 C 6,1 C 4,9 C 5,1 C 7,8 C 7,8 C 8,7 C 8,9 C 9,4 C 42 % 72 % 0 lf 20 cb 200 cb 50 cb 27 cb 1027,4 hPa #0,0 l/m 1,8 km/h (1 Bft) SO - #3:25 h #0,381 mm 1,2 UV-I 259 W/m 0,1 C 5,0 C 5,3 km/h (1 Bft) 93,37 %
copy; 2009 Dieter Kraft